»·PEaware :: N1SC KSAN-KSBA

N1SC :: KSAN-KSBA

FLIGHT INFORMATION

Flight Status: Arrived
Operator: Privately registered:
United States
More flights under this callsign
Pilot: Chris C. (10181)
Aircraft: PIPER PA-42-720 CHEYENNE 3
(PAY3)
More flights by this aircraft type
Origin: KSAN San Diego Intl-Lindbergh
United States
Destination: KSBA Santa Barbara Mun
United States
More flights between these airports :: More routes between these airports
Route: TEC SANN36
File this flight plan on PilotEdge
Remarks:
Altitude:
(Current/Filed)
8,000ft
Speed:
(Current/Filed)
310kts
Departed: 13-Feb-18 11:01 AM
Arrived: 13-Feb-18 12:02 PM
Distance/Time
Traveled:
167nm/1:01
Distance/Time
To Go:
Arrived

Flight Plot

Page will automatically refresh every two minutes.

Flight plan parsing failed; only flown route is shown


Map Options




Map Legend


Flown Route
Filed Route
Departure Airport
Arrival Airport
Navaid (VOR, NDB)
Fix

Horizontal Profiles

Position Reports

Time Latitude Longitude Heading Altitude Ground
Speed
13-Feb-18 10:50 32.732408 -117.177176 15 19ft 0kts
13-Feb-18 10:51 32.732408 -117.177176 15 19ft 0kts
13-Feb-18 10:52 32.732408 -117.177176 15 19ft 0kts
13-Feb-18 10:53 32.732408 -117.177176 15 19ft 0kts
13-Feb-18 10:54 32.732408 -117.177176 15 19ft 0kts
13-Feb-18 10:55 32.732408 -117.177176 15 19ft 0kts
13-Feb-18 10:56 32.732408 -117.177176 15 19ft 0kts
13-Feb-18 10:57 32.732408 -117.177176 15 19ft 0kts
13-Feb-18 10:58 32.732408 -117.177176 15 19ft 0kts
13-Feb-18 10:59 32.732408 -117.177176 15 19ft 0kts
13-Feb-18 11:00 32.732408 -117.177176 15 19ft 0kts
13-Feb-18 11:01 32.732408 -117.177176 15 19ft 0kts
13-Feb-18 11:02 32.732408 -117.177176 15 19ft 0kts
13-Feb-18 11:03 32.732290 -117.176932 164 19ft 4kts
13-Feb-18 11:04 32.731260 -117.176562 151 19ft 0kts
13-Feb-18 11:05 32.730928 -117.175306 149 19ft 0kts
13-Feb-18 11:06 32.730701 -117.175255 185 19ft 4kts
13-Feb-18 11:07 32.730347 -117.176523 286 19ft 25kts
13-Feb-18 11:08 32.733027 -117.187809 286 73ft 134kts
13-Feb-18 11:17 32.732408 -117.177176 15 19ft 0kts
13-Feb-18 11:18 32.732408 -117.177176 15 19ft 0kts
13-Feb-18 11:19 32.732408 -117.177176 15 19ft 0kts
13-Feb-18 11:20 32.732408 -117.177176 15 19ft 0kts
13-Feb-18 11:21 32.732408 -117.177176 15 19ft 0kts
13-Feb-18 11:22 32.732408 -117.177176 15 19ft 0kts
13-Feb-18 11:23 32.731999 -117.176820 180 19ft 3kts
13-Feb-18 11:24 32.730936 -117.175292 162 19ft 0kts
13-Feb-18 11:25 32.730442 -117.176864 285 19ft 11kts
13-Feb-18 11:26 32.737487 -117.204280 289 443ft 138kts
13-Feb-18 11:27 32.760835 -117.240041 313 2436ft 146kts
13-Feb-18 11:28 32.789340 -117.276918 313 4362ft 162kts
13-Feb-18 11:29 32.832233 -117.301956 338 6018ft 171kts
13-Feb-18 11:30 32.863952 -117.349009 296 6981ft 208kts
13-Feb-18 11:31 32.893342 -117.396470 311 7660ft 217kts
13-Feb-18 11:32 32.939945 -117.464935 306 7990ft 241kts
13-Feb-18 11:33 32.982050 -117.530307 307 7989ft 257kts
13-Feb-18 11:34 33.019387 -117.587210 307 7999ft 263kts
13-Feb-18 11:35 33.064702 -117.656181 308 8003ft 265kts
13-Feb-18 11:36 33.110006 -117.725348 307 8003ft 264kts
13-Feb-18 11:37 33.163101 -117.805652 310 8003ft 264kts
13-Feb-18 11:38 33.193585 -117.868069 288 8005ft 265kts
13-Feb-18 11:39 33.221337 -117.949832 291 7997ft 265kts
13-Feb-18 11:40 33.248629 -118.031615 291 7998ft 265kts
13-Feb-18 11:41 33.275808 -118.113650 291 7997ft 266kts
13-Feb-18 11:42 33.303049 -118.196069 291 7996ft 266kts
13-Feb-18 11:43 33.330153 -118.278295 291 7994ft 266kts
13-Feb-18 11:44 33.357204 -118.360559 291 7992ft 266kts
13-Feb-18 11:45 33.390019 -118.439131 315 8004ft 265kts
13-Feb-18 11:46 33.439073 -118.505354 309 8000ft 266kts
13-Feb-18 11:47 33.486521 -118.573606 310 8003ft 267kts
13-Feb-18 11:48 33.534348 -118.641977 310 8004ft 267kts
13-Feb-18 11:49 33.582026 -118.710180 309 8006ft 267kts
13-Feb-18 11:50 33.629859 -118.778735 309 8007ft 267kts
13-Feb-18 11:51 33.677623 -118.847327 309 8008ft 268kts
13-Feb-18 11:52 33.725488 -118.916200 309 8010ft 269kts
13-Feb-18 11:53 33.773520 -118.985447 309 8011ft 269kts
13-Feb-18 11:54 33.839499 -119.016469 1 8004ft 265kts
13-Feb-18 11:55 33.900430 -119.062278 316 8009ft 269kts
13-Feb-18 11:56 33.956501 -119.122998 318 7996ft 270kts
13-Feb-18 11:57 34.012327 -119.183798 318 8000ft 271kts
13-Feb-18 11:58 34.068382 -119.244989 318 8002ft 272kts
13-Feb-18 11:59 34.124705 -119.306750 318 7985ft 273kts
13-Feb-18 12:00 34.179114 -119.367975 317 7543ft 249kts
13-Feb-18 12:01 34.230697 -119.425213 318 6745ft 255kts
13-Feb-18 12:02 34.283317 -119.483240 318 5947ft 256kts
13-Feb-18 12:03 34.323035 -119.551821 286 5152ft 254kts
13-Feb-18 12:04 34.351409 -119.628147 294 4347ft 241kts
13-Feb-18 12:05 34.377348 -119.699834 293 3999ft 222kts
13-Feb-18 12:06 34.407072 -119.760464 323 2974ft 194kts
13-Feb-18 12:07 34.447559 -119.792148 307 1418ft 170kts
13-Feb-18 12:08 34.449294 -119.839852 215 828ft 127kts
13-Feb-18 12:09 34.424787 -119.838480 165 14ft 21kts
13-Feb-18 12:10 34.422645 -119.837257 81 14ft 0kts

Navigation Log

Ident Type
Flight plan parsing failed, navigation log unavailable